Terminal Aerodrome Forecast
Issued by NWS

Home | Current Version | Previous Version | Text Only | Print | Product List | Glossary On
Versions: 1 2 3 4 5 6 7 8 9 10 11 12 13 14 15 16 17 18
000
FTUS41 KGYX 011120
TAFPSM
TAF
KPSM 011120Z 0112/0212 01006KT P6SM -SHRA OVC008
     FM011300 03010KT 6SM -SHRA BR OVC012
     FM020000 02007KT P6SM VCSH SCT007 OVC012=

USA.gov is the U.S. government's official web portal to all federal, state and local government web resources and services.